Time;durP1;ratioP1;P1;durP2;ratioP2;P2;SDS_P1;SDS_P2;PMS_P1;PMS_P2;Temp;Humidity;BMP_temperature;BMP_pressure;BME280_temperature;BME280_humidity;BME280_pressure;Samples;Min_cycle;Max_cycle;Signal;HPM_P1;HPM_P2
2021/07/11 00:06:47;;;;;;;5.03;3.15;;;;;;;17.45;84.36;100408.63;21232225;27;20043;-69
2021/07/11 00:16:49;;;;;;;8.77;3.17;;;;;;;17.38;84.09;100407.16;21233293;27;20096;-68
2021/07/11 00:26:50;;;;;;;7.82;3.22;;;;;;;17.33;84.95;100393.25;21230899;27;20039;-69
2021/07/11 00:36:53;;;;;;;9.57;3.30;;;;;;;17.21;84.63;100397.31;21230268;27;20039;-69
2021/07/11 00:46:54;;;;;;;7.10;3.38;;;;;;;17.05;84.90;100410.31;21229849;27;20051;-68
2021/07/11 00:56:56;;;;;;;7.68;3.30;;;;;;;17.03;85.32;100412.19;21229288;27;20534;-69
2021/07/11 01:07:03;;;;;;;6.63;3.00;;;;;;;16.96;85.18;100431.91;21225529;27;20055;-70
2021/07/11 01:17:07;;;;;;;6.75;3.28;;;;;;;17.01;85.07;100429.03;21210707;27;20047;-69
2021/07/11 01:27:09;;;;;;;8.63;3.75;;;;;;;17.02;85.50;100430.78;21228881;27;20092;-69
2021/07/11 01:37:11;;;;;;;7.15;3.72;;;;;;;16.89;85.49;100431.25;21227615;28;20047;-69
2021/07/11 01:47:13;;;;;;;10.90;3.33;;;;;;;16.90;85.78;100437.41;21227603;28;20073;-69
2021/07/11 01:57:15;;;;;;;8.50;3.40;;;;;;;16.91;84.94;100439.13;21227979;28;20799;-69
2021/07/11 02:07:17;;;;;;;7.20;3.47;;;;;;;16.79;85.84;100423.78;21239575;27;20114;-69
2021/07/11 02:17:24;;;;;;;8.60;3.40;;;;;;;16.89;85.27;100430.41;21242331;27;20051;-69
2021/07/11 02:27:26;;;;;;;7.13;3.30;;;;;;;16.90;85.68;100432.97;21241764;27;20043;-69
2021/07/11 02:37:29;;;;;;;9.73;3.70;;;;;;;16.92;85.50;100420.56;21240442;27;20046;-69
2021/07/11 02:47:32;;;;;;;8.88;3.45;;;;;;;16.91;86.23;100433.84;21239777;27;20043;-69
2021/07/11 02:57:35;;;;;;;9.05;3.35;;;;;;;17.02;85.91;100441.34;21240140;27;20397;-69
2021/07/11 03:07:38;;;;;;;6.47;3.17;;;;;;;17.04;85.63;100428.91;21238349;27;20518;-69
2021/07/11 03:17:41;;;;;;;7.72;3.60;;;;;;;17.06;85.54;100437.66;21235906;27;20043;-69
2021/07/11 03:27:43;;;;;;;10.38;4.07;;;;;;;16.93;85.89;100442.59;21236935;27;20050;-69
2021/07/11 03:37:48;;;;;;;7.78;3.75;;;;;;;16.82;85.99;100439.53;21235885;27;20104;-69
2021/07/11 03:47:56;;;;;;;;;;;;;;;16.80;86.23;100444.00;21235985;27;20481;-69
2021/07/11 03:58:00;;;;;;;7.63;3.92;;;;;;;16.82;85.71;100452.75;21234587;27;20529;-69
2021/07/11 04:08:05;;;;;;;9.73;3.90;;;;;;;16.85;85.53;100460.53;21233638;27;20055;-69
2021/07/11 04:18:13;;;;;;;10.20;4.30;;;;;;;16.76;85.57;100472.34;21233099;27;20039;-69
2021/07/11 04:28:16;;;;;;;9.60;4.20;;;;;;;16.73;85.30;100474.28;21231260;27;20036;-69
2021/07/11 04:38:18;;;;;;;11.02;4.13;;;;;;;16.70;84.44;100485.78;21231085;27;20435;-69
2021/07/11 04:48:20;;;;;;;7.07;3.67;;;;;;;16.70;84.26;100477.00;21230704;27;20039;-69
2021/07/11 04:58:22;;;;;;;9.40;3.45;;;;;;;16.60;83.90;100476.50;21230551;27;20473;-69
2021/07/11 05:08:23;;;;;;;6.43;3.30;;;;;;;16.72;82.99;100480.47;21228868;27;20401;-70
2021/07/11 05:18:26;;;;;;;6.25;2.92;;;;;;;16.68;82.80;100496.44;21229139;27;20044;-69
2021/07/11 05:28:27;;;;;;;8.50;3.45;;;;;;;16.91;82.30;100499.97;21228428;27;20039;-69
2021/07/11 05:38:29;;;;;;;7.70;2.70;;;;;;;17.08;80.64;100494.00;21236272;27;20400;-69
2021/07/11 05:48:31;;;;;;;6.65;2.72;;;;;;;17.51;79.19;100503.66;21244818;27;20047;-69
2021/07/11 05:58:33;;;;;;;8.15;2.50;;;;;;;17.81;77.29;100500.63;21244849;27;20054;-69
2021/07/11 06:08:35;;;;;;;6.55;2.67;;;;;;;18.30;75.34;100509.00;21243144;27;20058;-69
2021/07/11 06:18:36;;;;;;;4.40;2.08;;;;;;;18.48;73.09;100507.31;21242193;27;20496;-68
2021/07/11 06:28:38;;;;;;;6.97;2.45;;;;;;;19.04;71.49;100512.59;21241212;27;20039;-68
2021/07/11 06:38:40;;;;;;;8.77;2.42;;;;;;;18.99;69.64;100513.75;21240297;27;20108;-68
2021/07/11 06:48:41;;;;;;;9.73;2.70;;;;;;;18.82;71.62;100527.81;21240874;27;20054;-68
2021/07/11 06:58:43;;;;;;;4.55;2.40;;;;;;;18.64;72.67;100518.94;21239570;27;20438;-68
2021/07/11 07:08:45;;;;;;;4.95;2.20;;;;;;;18.81;70.89;100526.97;21240766;27;20039;-69
2021/07/11 07:18:47;;;;;;;5.15;2.00;;;;;;;18.74;67.94;100525.56;21244143;27;20096;-68
2021/07/11 07:28:49;;;;;;;6.57;1.70;;;;;;;18.89;64.81;100539.88;21242860;27;20059;-69
2021/07/11 07:38:50;;;;;;;5.32;2.10;;;;;;;18.99;66.93;100549.13;21242517;27;20390;-68
2021/07/11 07:48:52;;;;;;;5.25;2.30;;;;;;;19.17;66.39;100553.53;21242186;27;20043;-68
2021/07/11 07:58:54;;;;;;;4.35;1.98;;;;;;;19.30;63.98;100539.63;21240382;27;20050;-68
2021/07/11 08:08:56;;;;;;;6.50;1.70;;;;;;;19.69;64.14;100547.41;21239112;27;20069;-68
2021/07/11 08:18:58;;;;;;;3.38;1.88;;;;;;;19.90;62.89;100545.47;21239709;27;20511;-70
2021/07/11 08:29:00;;;;;;;6.85;1.90;;;;;;;19.56;63.82;100552.50;21238580;27;20051;-70
2021/07/11 08:39:03;;;;;;;5.55;1.92;;;;;;;19.22;64.69;100558.63;21239693;27;20047;-70
2021/07/11 08:49:06;;;;;;;5.63;1.90;;;;;;;19.16;64.98;100562.44;21237965;27;20554;-68
2021/07/11 08:59:08;;;;;;;3.53;1.60;;;;;;;19.88;61.87;100572.13;21236998;27;20094;-69
2021/07/11 09:09:11;;;;;;;3.80;1.80;;;;;;;20.53;61.06;100556.31;21235074;27;20089;-68
2021/07/11 09:19:24;;;;;;;5.70;1.93;;;;;;;20.09;61.13;100556.88;21235403;27;20043;-69
2021/07/11 09:29:28;;;;;;;5.15;1.70;;;;;;;20.78;59.35;100552.28;21235664;27;20078;-69
2021/07/11 09:39:30;;;;;;;;;;;;;;;20.86;57.00;100540.28;21234819;28;20047;-69
2021/07/11 09:49:32;;;;;;;4.28;1.98;;;;;;;21.38;57.49;100536.47;21217152;28;19923;-69
2021/07/11 09:59:34;;;;;;;4.03;1.70;;;;;;;21.61;56.63;100520.00;21233935;28;20051;-69
2021/07/11 10:09:38;;;;;;;4.97;2.00;;;;;;;21.70;55.06;100537.22;21232900;28;20044;-68
2021/07/11 10:19:46;;;;;;;3.25;1.35;;;;;;;22.52;50.89;100536.66;21232989;27;20093;-68
2021/07/11 10:29:50;;;;;;;4.72;1.60;;;;;;;23.03;51.24;100526.25;21249054;27;20073;-68
2021/07/11 10:40:24;;;;;;;3.23;1.53;;;;;;;23.22;50.17;100518.75;21246855;27;20031;-69
2021/07/11 10:50:29;;;;;;;3.33;1.50;;;;;;;22.49;52.47;100523.50;21244172;27;20530;-69
2021/07/11 11:00:31;;;;;;;3.55;1.77;;;;;;;22.87;49.66;100517.53;21226871;27;20122;-69
2021/07/11 11:10:34;;;;;;;2.88;1.40;;;;;;;22.88;48.39;100512.06;21244977;27;20138;-69
2021/07/11 11:20:36;;;;;;;4.53;1.40;;;;;;;23.28;48.81;100506.78;21244259;27;20043;-69
2021/07/11 11:30:41;;;;;;;2.85;1.60;;;;;;;23.41;51.77;100512.19;21242948;27;20043;-69
2021/07/11 11:40:43;;;;;;;5.25;1.92;;;;;;;24.16;50.61;100505.22;21241285;27;20092;-70
2021/07/11 11:50:45;;;;;;;4.55;1.90;;;;;;;23.22;52.92;100517.91;21244555;27;20542;-69
2021/07/11 12:00:47;;;;;;;4.38;2.38;;;;;;;22.90;54.14;100517.34;21239974;27;20039;-67
2021/07/11 12:10:49;;;;;;;4.15;1.80;;;;;;;22.58;56.60;100528.25;21240537;27;20443;-68
2021/07/11 12:20:52;;;;;;;3.30;2.00;;;;;;;22.38;58.13;100520.66;21238482;27;20424;-68
2021/07/11 12:30:56;;;;;;;6.13;2.78;;;;;;;22.23;59.24;100509.13;21237666;27;20047;-68
2021/07/11 12:40:59;;;;;;;4.27;1.80;;;;;;;22.64;59.35;100511.84;21238038;27;20043;-68
2021/07/11 12:51:31;;;;;;;3.50;1.70;;;;;;;22.82;57.26;100504.47;21221383;27;20051;-68
2021/07/11 13:01:33;;;;;;;4.32;2.00;;;;;;;23.20;55.75;100496.63;21220912;27;20047;-68
2021/07/11 13:11:38;;;;;;;4.13;1.83;;;;;;;23.79;55.10;100483.72;21235545;27;20043;-67
2021/07/11 13:21:40;;;;;;;3.38;1.80;;;;;;;24.09;51.50;100474.50;21210650;27;20071;-67
2021/07/11 13:31:42;;;;;;;3.75;1.40;;;;;;;24.32;50.85;100468.34;21232231;27;20039;-67
2021/07/11 13:41:44;;;;;;;3.15;1.60;;;;;;;24.82;50.91;100458.50;21232887;28;20046;-68
2021/07/11 13:51:46;;;;;;;2.80;1.40;;;;;;;24.69;47.62;100459.50;21231232;28;20096;-67
2021/07/11 14:01:48;;;;;;;3.45;1.70;;;;;;;25.19;44.30;100445.03;21244063;27;20042;-67
2021/07/11 14:11:49;;;;;;;5.22;1.45;;;;;;;24.83;44.64;100430.75;21248436;27;20043;-67
2021/07/11 14:21:50;;;;;;;3.20;1.27;;;;;;;24.62;45.45;100445.72;21247558;27;20542;-67
2021/07/11 14:31:54;;;;;;;3.72;1.60;;;;;;;24.32;46.88;100436.25;21245498;27;20043;-67
2021/07/11 14:41:56;;;;;;;2.25;1.15;;;;;;;23.60;46.75;100432.44;21244895;27;20047;-67
2021/07/11 14:51:57;;;;;;;3.60;1.45;;;;;;;23.38;50.36;100418.84;21245237;27;20493;-68
2021/07/11 15:01:59;;;;;;;3.53;1.30;;;;;;;23.36;49.55;100404.75;21244149;27;20066;-67
2021/07/11 15:12:01;;;;;;;4.07;1.70;;;;;;;23.11;50.39;100413.59;21243072;27;20471;-68
2021/07/11 15:22:04;;;;;;;3.60;1.73;;;;;;;23.49;50.02;100392.25;21242924;27;20081;-70
2021/07/11 15:32:06;;;;;;;4.05;1.55;;;;;;;24.02;47.66;100374.25;21241835;27;20497;-69
2021/07/11 15:42:08;;;;;;;3.47;1.30;;;;;;;24.29;44.53;100360.69;21242854;27;20413;-69
2021/07/11 15:52:10;;;;;;;2.33;1.25;;;;;;;24.26;46.60;100352.91;21241074;27;20043;-69
2021/07/11 16:02:12;;;;;;;3.92;1.60;;;;;;;24.48;44.35;100339.69;21238600;27;20047;-69
2021/07/11 16:12:14;;;;;;;2.55;1.48;;;;;;;24.18;43.01;100326.69;21238511;27;20408;-69
2021/07/11 16:22:16;;;;;;;2.75;1.40;;;;;;;24.34;43.34;100323.75;21231819;27;20043;-69
2021/07/11 16:32:17;;;;;;;2.85;1.50;;;;;;;24.69;41.86;100312.25;21235614;27;20514;-69
2021/07/11 16:42:19;;;;;;;2.65;1.30;;;;;;;24.50;44.07;100300.25;21235138;27;20093;-68
2021/07/11 16:52:21;;;;;;;3.55;1.40;;;;;;;24.82;41.64;100297.81;21236829;27;20039;-69
2021/07/11 17:02:22;;;;;;;4.90;1.52;;;;;;;24.62;43.43;100305.63;21233887;27;20039;-69
2021/07/11 17:12:27;;;;;;;2.63;1.50;;;;;;;24.62;43.11;100297.59;21232985;27;20571;-68
2021/07/11 17:22:29;;;;;;;3.50;1.30;;;;;;;24.58;44.33;100299.69;21233990;27;20480;-69
2021/07/11 17:32:32;;;;;;;2.40;1.52;;;;;;;24.55;44.03;100291.88;21231791;27;20443;-69
2021/07/11 17:42:34;;;;;;;2.90;1.42;;;;;;;24.28;46.06;100300.97;21232768;28;20048;-68
2021/07/11 17:52:36;;;;;;;3.67;1.52;;;;;;;24.50;45.97;100289.53;21232942;28;20036;-68
2021/07/11 18:02:40;;;;;;;2.88;1.70;;;;;;;24.06;47.96;100291.00;21233716;28;20047;-69
2021/07/11 18:12:42;;;;;;;2.75;1.45;;;;;;;23.69;48.53;100295.50;21231701;28;20051;-70
2021/07/11 18:22:45;;;;;;;3.08;1.58;;;;;;;23.31;50.12;100303.53;21231624;28;20039;-69
2021/07/11 18:32:47;;;;;;;4.20;1.53;;;;;;;23.14;51.85;100291.38;21228629;27;20092;-68
2021/07/11 18:42:49;;;;;;;3.20;1.80;;;;;;;22.73;51.79;100287.03;21233593;27;20439;-69
2021/07/11 18:52:51;;;;;;;4.28;2.17;;;;;;;22.37;52.76;100293.00;21245428;27;20051;-68
2021/07/11 19:02:52;;;;;;;3.92;2.10;;;;;;;21.83;59.23;100295.63;21246002;27;20069;-68
2021/07/11 19:12:54;;;;;;;4.50;2.10;;;;;;;21.46;59.53;100299.78;21243365;27;20105;-68
2021/07/11 19:22:59;;;;;;;4.70;2.17;;;;;;;20.75;63.16;100290.75;21245317;27;20096;-68
2021/07/11 19:33:03;;;;;;;7.18;2.63;;;;;;;20.36;64.96;100293.03;21242391;27;20047;-68
2021/07/11 19:43:05;;;;;;;4.50;2.57;;;;;;;20.02;65.47;100294.97;21241678;27;20096;-68
2021/07/11 19:53:07;;;;;;;5.88;2.50;;;;;;;19.38;67.71;100293.19;21239381;27;20488;-68
2021/07/11 20:03:09;;;;;;;8.57;2.50;;;;;;;18.94;70.56;100312.31;21238956;27;20047;-68
2021/07/11 20:13:12;;;;;;;4.45;2.58;;;;;;;18.78;72.55;100311.38;21239037;27;20489;-68
2021/07/11 20:23:13;;;;;;;5.50;2.50;;;;;;;18.82;71.81;100310.28;21238703;27;20492;-69
2021/07/11 20:33:15;;;;;;;6.78;3.03;;;;;;;18.71;72.05;100305.53;21233014;27;20043;-68
2021/07/11 20:43:17;;;;;;;5.47;2.78;;;;;;;18.46;73.55;100306.75;21235794;27;20092;-69
2021/07/11 20:53:19;;;;;;;8.18;3.10;;;;;;;18.39;73.98;100302.66;21237562;27;20100;-69
2021/07/11 21:03:22;;;;;;;9.65;3.40;;;;;;;17.99;76.14;100297.63;21230304;27;20043;-68
2021/07/11 21:13:23;;;;;;;9.50;2.67;;;;;;;17.91;76.38;100290.00;21225640;27;20043;-69
2021/07/11 21:23:25;;;;;;;6.93;3.00;;;;;;;17.83;76.54;100281.59;21232418;27;20043;-67
2021/07/11 21:33:27;;;;;;;6.35;2.90;;;;;;;17.67;76.17;100290.22;21230658;27;20036;-69
2021/07/11 21:43:29;;;;;;;6.65;2.72;;;;;;;17.25;77.57;100289.53;21233628;28;20043;-67
2021/07/11 21:53:31;;;;;;;7.68;3.35;;;;;;;16.97;78.81;100284.63;21231182;28;20054;-67
2021/07/11 22:03:33;;;;;;;10.27;4.15;;;;;;;16.95;80.08;100289.97;21231247;28;20093;-68
2021/07/11 22:13:36;;;;;;;6.13;3.25;;;;;;;17.00;79.76;100293.25;21226343;28;20047;-68
2021/07/11 22:23:37;;;;;;;6.43;3.72;;;;;;;16.82;80.11;100291.44;21232218;27;20039;-68
2021/07/11 22:33:39;;;;;;;5.15;3.22;;;;;;;16.62;80.03;100298.41;21235566;27;20085;-70
2021/07/11 22:43:41;;;;;;;6.55;3.30;;;;;;;16.38;80.21;100289.72;21240056;27;20101;-70
2021/07/11 22:53:43;;;;;;;7.75;3.03;;;;;;;16.20;80.71;100286.97;21241013;27;20047;-70
2021/07/11 23:03:45;;;;;;;5.93;3.90;;;;;;;15.90;81.86;100271.41;21239445;27;20036;-70
2021/07/11 23:13:47;;;;;;;7.25;4.50;;;;;;;15.89;82.03;100253.88;21239767;27;20526;-69
2021/07/11 23:23:49;;;;;;;7.05;4.30;;;;;;;15.79;82.76;100236.69;21238370;27;20050;-69
2021/07/11 23:33:52;;;;;;;7.70;4.10;;;;;;;15.64;82.71;100225.81;21235566;27;20065;-68
2021/07/11 23:43:53;;;;;;;8.55;4.90;;;;;;;15.64;83.97;100225.81;21237044;27;20054;-70
2021/07/11 23:53:55;;;;;;;8.15;4.70;;;;;;;15.73;83.91;100215.81;21235457;27;20502;-70
